sensor_id;sensor_type;location;lat;lon;timestamp;P1;durP1;ratioP1;P2;durP2;ratioP2
18716;SDS011;9487;50.892;6.906;2023-02-03T00:01:25;10.10;;;6.03;;
18716;SDS011;9487;50.892;6.906;2023-02-03T00:03:51;10.57;;;6.40;;
18716;SDS011;9487;50.892;6.906;2023-02-03T00:06:20;9.50;;;5.17;;
18716;SDS011;9487;50.892;6.906;2023-02-03T00:08:47;8.50;;;5.30;;
18716;SDS011;9487;50.892;6.906;2023-02-03T00:11:14;11.00;;;6.00;;
18716;SDS011;9487;50.892;6.906;2023-02-03T00:13:41;10.47;;;6.17;;
18716;SDS011;9487;50.892;6.906;2023-02-03T00:16:08;8.33;;;5.63;;
18716;SDS011;9487;50.892;6.906;2023-02-03T00:18:35;7.63;;;5.40;;
18716;SDS011;9487;50.892;6.906;2023-02-03T00:21:03;8.13;;;5.00;;
18716;SDS011;9487;50.892;6.906;2023-02-03T00:23:31;7.70;;;5.13;;
18716;SDS011;9487;50.892;6.906;2023-02-03T00:26:05;6.90;;;4.27;;
18716;SDS011;9487;50.892;6.906;2023-02-03T00:28:32;7.40;;;5.13;;
18716;SDS011;9487;50.892;6.906;2023-02-03T00:30:59;9.53;;;4.97;;
18716;SDS011;9487;50.892;6.906;2023-02-03T00:33:26;9.37;;;5.17;;
18716;SDS011;9487;50.892;6.906;2023-02-03T00:35:53;8.87;;;4.93;;
18716;SDS011;9487;50.892;6.906;2023-02-03T00:38:20;8.90;;;4.23;;
18716;SDS011;9487;50.892;6.906;2023-02-03T00:40:52;9.17;;;4.53;;
18716;SDS011;9487;50.892;6.906;2023-02-03T00:43:19;10.80;;;5.33;;
18716;SDS011;9487;50.892;6.906;2023-02-03T00:45:46;12.30;;;4.83;;
18716;SDS011;9487;50.892;6.906;2023-02-03T00:48:13;9.57;;;5.10;;
18716;SDS011;9487;50.892;6.906;2023-02-03T00:50:40;7.23;;;5.00;;
18716;SDS011;9487;50.892;6.906;2023-02-03T00:53:07;10.00;;;4.70;;
18716;SDS011;9487;50.892;6.906;2023-02-03T00:55:34;8.60;;;4.50;;
18716;SDS011;9487;50.892;6.906;2023-02-03T00:58:02;7.77;;;4.03;;
18716;SDS011;9487;50.892;6.906;2023-02-03T01:00:29;6.67;;;4.23;;
18716;SDS011;9487;50.892;6.906;2023-02-03T01:02:55;6.53;;;3.73;;
18716;SDS011;9487;50.892;6.906;2023-02-03T01:05:22;7.20;;;4.13;;
18716;SDS011;9487;50.892;6.906;2023-02-03T01:07:49;8.77;;;3.90;;
18716;SDS011;9487;50.892;6.906;2023-02-03T01:10:16;8.33;;;4.10;;
18716;SDS011;9487;50.892;6.906;2023-02-03T01:12:43;11.23;;;4.33;;
18716;SDS011;9487;50.892;6.906;2023-02-03T01:15:11;7.60;;;3.87;;
18716;SDS011;9487;50.892;6.906;2023-02-03T01:17:38;7.80;;;4.00;;
18716;SDS011;9487;50.892;6.906;2023-02-03T01:20:05;7.30;;;3.70;;
18716;SDS011;9487;50.892;6.906;2023-02-03T01:22:32;8.73;;;4.00;;
18716;SDS011;9487;50.892;6.906;2023-02-03T01:24:59;9.33;;;3.70;;
18716;SDS011;9487;50.892;6.906;2023-02-03T01:27:26;5.00;;;3.40;;
18716;SDS011;9487;50.892;6.906;2023-02-03T01:29:52;7.67;;;3.77;;
18716;SDS011;9487;50.892;6.906;2023-02-03T01:32:20;9.93;;;4.30;;
18716;SDS011;9487;50.892;6.906;2023-02-03T01:34:47;8.23;;;3.70;;
18716;SDS011;9487;50.892;6.906;2023-02-03T01:37:14;6.23;;;3.67;;
18716;SDS011;9487;50.892;6.906;2023-02-03T01:39:42;6.67;;;4.00;;
18716;SDS011;9487;50.892;6.906;2023-02-03T01:42:09;7.67;;;3.43;;
18716;SDS011;9487;50.892;6.906;2023-02-03T01:44:43;6.73;;;3.37;;
18716;SDS011;9487;50.892;6.906;2023-02-03T01:47:22;9.00;;;3.83;;
18716;SDS011;9487;50.892;6.906;2023-02-03T01:49:54;7.67;;;4.00;;
18716;SDS011;9487;50.892;6.906;2023-02-03T01:52:30;8.10;;;3.47;;
18716;SDS011;9487;50.892;6.906;2023-02-03T01:54:58;7.73;;;3.67;;
18716;SDS011;9487;50.892;6.906;2023-02-03T01:57:29;6.20;;;3.03;;
18716;SDS011;9487;50.892;6.906;2023-02-03T01:59:58;8.97;;;3.93;;
18716;SDS011;9487;50.892;6.906;2023-02-03T02:02:29;9.03;;;3.13;;
18716;SDS011;9487;50.892;6.906;2023-02-03T02:04:59;9.10;;;4.27;;
18716;SDS011;9487;50.892;6.906;2023-02-03T02:07:29;6.43;;;3.40;;
18716;SDS011;9487;50.892;6.906;2023-02-03T02:09:57;7.50;;;3.70;;
18716;SDS011;9487;50.892;6.906;2023-02-03T02:12:25;7.80;;;4.17;;
18716;SDS011;9487;50.892;6.906;2023-02-03T02:14:52;9.50;;;3.60;;
18716;SDS011;9487;50.892;6.906;2023-02-03T02:17:27;8.77;;;3.50;;
18716;SDS011;9487;50.892;6.906;2023-02-03T02:20:13;7.03;;;3.17;;
18716;SDS011;9487;50.892;6.906;2023-02-03T02:23:10;8.80;;;3.37;;
18716;SDS011;9487;50.892;6.906;2023-02-03T02:26:11;5.40;;;2.40;;
18716;SDS011;9487;50.892;6.906;2023-02-03T02:29:11;6.40;;;3.10;;
18716;SDS011;9487;50.892;6.906;2023-02-03T02:32:10;7.27;;;3.20;;
18716;SDS011;9487;50.892;6.906;2023-02-03T02:34:48;7.23;;;2.93;;
18716;SDS011;9487;50.892;6.906;2023-02-03T02:37:23;7.73;;;3.30;;
18716;SDS011;9487;50.892;6.906;2023-02-03T02:39:57;6.10;;;3.53;;
18716;SDS011;9487;50.892;6.906;2023-02-03T02:42:37;5.97;;;3.27;;
18716;SDS011;9487;50.892;6.906;2023-02-03T02:45:14;6.97;;;3.50;;
18716;SDS011;9487;50.892;6.906;2023-02-03T02:47:45;10.27;;;3.73;;
18716;SDS011;9487;50.892;6.906;2023-02-03T02:52:44;4.47;;;2.90;;
18716;SDS011;9487;50.892;6.906;2023-02-03T02:55:14;5.87;;;2.90;;
18716;SDS011;9487;50.892;6.906;2023-02-03T02:57:48;6.53;;;3.10;;
18716;SDS011;9487;50.892;6.906;2023-02-03T03:00:17;7.00;;;2.80;;
18716;SDS011;9487;50.892;6.906;2023-02-03T03:02:45;4.33;;;2.73;;
18716;SDS011;9487;50.892;6.906;2023-02-03T03:05:12;7.03;;;3.00;;
18716;SDS011;9487;50.892;6.906;2023-02-03T03:07:40;5.97;;;3.03;;
18716;SDS011;9487;50.892;6.906;2023-02-03T03:10:11;5.80;;;2.47;;
18716;SDS011;9487;50.892;6.906;2023-02-03T03:12:42;5.20;;;3.10;;
18716;SDS011;9487;50.892;6.906;2023-02-03T03:15:14;4.87;;;3.00;;
18716;SDS011;9487;50.892;6.906;2023-02-03T03:17:50;6.07;;;3.10;;
18716;SDS011;9487;50.892;6.906;2023-02-03T03:20:24;5.43;;;2.93;;
18716;SDS011;9487;50.892;6.906;2023-02-03T03:22:53;6.40;;;3.20;;
18716;SDS011;9487;50.892;6.906;2023-02-03T03:25:23;6.87;;;3.47;;
18716;SDS011;9487;50.892;6.906;2023-02-03T03:27:55;9.83;;;3.80;;
18716;SDS011;9487;50.892;6.906;2023-02-03T03:30:26;4.93;;;2.70;;
18716;SDS011;9487;50.892;6.906;2023-02-03T03:32:59;7.17;;;3.13;;
18716;SDS011;9487;50.892;6.906;2023-02-03T03:35:27;6.80;;;3.30;;
18716;SDS011;9487;50.892;6.906;2023-02-03T03:38:02;4.60;;;2.90;;
18716;SDS011;9487;50.892;6.906;2023-02-03T03:40:33;8.83;;;3.90;;
18716;SDS011;9487;50.892;6.906;2023-02-03T03:43:05;5.37;;;3.03;;
18716;SDS011;9487;50.892;6.906;2023-02-03T03:45:41;6.70;;;3.63;;
18716;SDS011;9487;50.892;6.906;2023-02-03T03:48:15;6.93;;;3.40;;
18716;SDS011;9487;50.892;6.906;2023-02-03T03:50:48;6.80;;;3.37;;
18716;SDS011;9487;50.892;6.906;2023-02-03T03:53:18;11.00;;;4.07;;
18716;SDS011;9487;50.892;6.906;2023-02-03T03:55:48;6.80;;;3.53;;
18716;SDS011;9487;50.892;6.906;2023-02-03T03:58:18;8.60;;;4.13;;
18716;SDS011;9487;50.892;6.906;2023-02-03T04:00:49;8.57;;;4.00;;
18716;SDS011;9487;50.892;6.906;2023-02-03T04:03:21;8.80;;;3.80;;
18716;SDS011;9487;50.892;6.906;2023-02-03T04:05:50;6.80;;;3.83;;
18716;SDS011;9487;50.892;6.906;2023-02-03T04:08:17;6.93;;;3.80;;
18716;SDS011;9487;50.892;6.906;2023-02-03T04:10:44;6.00;;;3.80;;
18716;SDS011;9487;50.892;6.906;2023-02-03T04:13:11;6.50;;;3.13;;
18716;SDS011;9487;50.892;6.906;2023-02-03T04:15:39;8.80;;;3.70;;
18716;SDS011;9487;50.892;6.906;2023-02-03T04:18:06;9.73;;;4.20;;
18716;SDS011;9487;50.892;6.906;2023-02-03T04:20:38;7.23;;;4.20;;
18716;SDS011;9487;50.892;6.906;2023-02-03T04:23:05;6.97;;;3.57;;
18716;SDS011;9487;50.892;6.906;2023-02-03T04:25:32;8.70;;;3.83;;
18716;SDS011;9487;50.892;6.906;2023-02-03T04:27:59;7.60;;;3.20;;
18716;SDS011;9487;50.892;6.906;2023-02-03T04:30:26;8.67;;;3.57;;
18716;SDS011;9487;50.892;6.906;2023-02-03T04:32:53;8.20;;;4.23;;
18716;SDS011;9487;50.892;6.906;2023-02-03T04:35:20;6.60;;;3.40;;
18716;SDS011;9487;50.892;6.906;2023-02-03T04:37:48;4.43;;;2.73;;
18716;SDS011;9487;50.892;6.906;2023-02-03T04:40:15;8.50;;;3.10;;
18716;SDS011;9487;50.892;6.906;2023-02-03T04:42:42;8.53;;;3.10;;
18716;SDS011;9487;50.892;6.906;2023-02-03T04:45:09;11.53;;;3.20;;
18716;SDS011;9487;50.892;6.906;2023-02-03T04:47:37;7.60;;;2.80;;
18716;SDS011;9487;50.892;6.906;2023-02-03T04:50:04;7.27;;;3.10;;
18716;SDS011;9487;50.892;6.906;2023-02-03T04:52:32;5.67;;;3.37;;
18716;SDS011;9487;50.892;6.906;2023-02-03T04:55:00;6.80;;;2.73;;
18716;SDS011;9487;50.892;6.906;2023-02-03T04:57:28;5.00;;;3.00;;
18716;SDS011;9487;50.892;6.906;2023-02-03T04:59:54;8.43;;;3.43;;
18716;SDS011;9487;50.892;6.906;2023-02-03T05:02:21;4.80;;;2.40;;
18716;SDS011;9487;50.892;6.906;2023-02-03T05:04:48;7.00;;;3.20;;
18716;SDS011;9487;50.892;6.906;2023-02-03T05:07:15;6.10;;;3.23;;
18716;SDS011;9487;50.892;6.906;2023-02-03T05:09:42;6.80;;;3.10;;
18716;SDS011;9487;50.892;6.906;2023-02-03T05:12:10;7.83;;;3.47;;
18716;SDS011;9487;50.892;6.906;2023-02-03T05:14:37;8.70;;;3.17;;
18716;SDS011;9487;50.892;6.906;2023-02-03T05:17:03;7.67;;;3.17;;
18716;SDS011;9487;50.892;6.906;2023-02-03T05:19:30;7.43;;;3.67;;
18716;SDS011;9487;50.892;6.906;2023-02-03T05:21:57;9.13;;;2.87;;
18716;SDS011;9487;50.892;6.906;2023-02-03T05:24:24;4.80;;;2.77;;
18716;SDS011;9487;50.892;6.906;2023-02-03T05:26:51;8.50;;;2.80;;
18716;SDS011;9487;50.892;6.906;2023-02-03T05:29:19;8.13;;;3.63;;
18716;SDS011;9487;50.892;6.906;2023-02-03T05:31:46;8.13;;;3.47;;
18716;SDS011;9487;50.892;6.906;2023-02-03T05:34:12;5.67;;;2.63;;
18716;SDS011;9487;50.892;6.906;2023-02-03T05:36:39;6.00;;;2.50;;
18716;SDS011;9487;50.892;6.906;2023-02-03T05:39:06;6.10;;;2.77;;
18716;SDS011;9487;50.892;6.906;2023-02-03T05:41:33;8.23;;;2.97;;
18716;SDS011;9487;50.892;6.906;2023-02-03T05:44:18;6.57;;;2.53;;
18716;SDS011;9487;50.892;6.906;2023-02-03T05:46:46;6.47;;;2.17;;
18716;SDS011;9487;50.892;6.906;2023-02-03T05:49:13;7.33;;;2.57;;
18716;SDS011;9487;50.892;6.906;2023-02-03T05:51:40;7.13;;;2.20;;
18716;SDS011;9487;50.892;6.906;2023-02-03T05:54:07;4.83;;;2.23;;
18716;SDS011;9487;50.892;6.906;2023-02-03T05:56:35;8.80;;;2.20;;
18716;SDS011;9487;50.892;6.906;2023-02-03T05:59:02;5.87;;;2.63;;
18716;SDS011;9487;50.892;6.906;2023-02-03T06:01:31;4.47;;;2.07;;
18716;SDS011;9487;50.892;6.906;2023-02-03T06:03:59;4.80;;;2.10;;
18716;SDS011;9487;50.892;6.906;2023-02-03T06:06:27;5.17;;;2.20;;
18716;SDS011;9487;50.892;6.906;2023-02-03T06:08:57;6.67;;;1.90;;
18716;SDS011;9487;50.892;6.906;2023-02-03T06:11:24;5.87;;;2.40;;
18716;SDS011;9487;50.892;6.906;2023-02-03T06:13:52;6.43;;;2.10;;
18716;SDS011;9487;50.892;6.906;2023-02-03T06:16:20;6.57;;;2.20;;
18716;SDS011;9487;50.892;6.906;2023-02-03T06:18:50;6.77;;;2.87;;
18716;SDS011;9487;50.892;6.906;2023-02-03T06:21:17;6.43;;;2.20;;
18716;SDS011;9487;50.892;6.906;2023-02-03T06:23:44;6.30;;;2.00;;
18716;SDS011;9487;50.892;6.906;2023-02-03T06:26:11;5.37;;;2.23;;
18716;SDS011;9487;50.892;6.906;2023-02-03T06:28:38;4.97;;;2.20;;
18716;SDS011;9487;50.892;6.906;2023-02-03T06:31:05;6.17;;;2.20;;
18716;SDS011;9487;50.892;6.906;2023-02-03T06:33:32;6.70;;;2.10;;
18716;SDS011;9487;50.892;6.906;2023-02-03T06:36:00;4.37;;;1.70;;
18716;SDS011;9487;50.892;6.906;2023-02-03T06:38:27;4.77;;;1.63;;
18716;SDS011;9487;50.892;6.906;2023-02-03T06:40:54;5.20;;;2.03;;
18716;SDS011;9487;50.892;6.906;2023-02-03T06:43:21;5.17;;;1.90;;
18716;SDS011;9487;50.892;6.906;2023-02-03T06:45:48;5.30;;;1.90;;
18716;SDS011;9487;50.892;6.906;2023-02-03T06:48:14;3.80;;;1.50;;
18716;SDS011;9487;50.892;6.906;2023-02-03T06:50:41;6.70;;;2.10;;
18716;SDS011;9487;50.892;6.906;2023-02-03T06:53:11;5.80;;;1.90;;
18716;SDS011;9487;50.892;6.906;2023-02-03T06:55:37;4.50;;;1.80;;
18716;SDS011;9487;50.892;6.906;2023-02-03T06:58:04;4.70;;;2.23;;
18716;SDS011;9487;50.892;6.906;2023-02-03T07:00:31;5.23;;;1.70;;
18716;SDS011;9487;50.892;6.906;2023-02-03T07:02:58;6.57;;;1.80;;
18716;SDS011;9487;50.892;6.906;2023-02-03T07:05:26;3.40;;;1.60;;
18716;SDS011;9487;50.892;6.906;2023-02-03T07:07:53;4.13;;;1.63;;
18716;SDS011;9487;50.892;6.906;2023-02-03T07:10:21;4.73;;;2.10;;
18716;SDS011;9487;50.892;6.906;2023-02-03T07:12:48;4.20;;;1.67;;
18716;SDS011;9487;50.892;6.906;2023-02-03T07:15:15;5.77;;;2.03;;
18716;SDS011;9487;50.892;6.906;2023-02-03T07:17:43;5.87;;;1.80;;
18716;SDS011;9487;50.892;6.906;2023-02-03T07:20:18;4.10;;;1.63;;
18716;SDS011;9487;50.892;6.906;2023-02-03T07:22:49;4.00;;;1.83;;
18716;SDS011;9487;50.892;6.906;2023-02-03T07:25:17;6.83;;;2.00;;
18716;SDS011;9487;50.892;6.906;2023-02-03T07:27:45;2.93;;;1.20;;
18716;SDS011;9487;50.892;6.906;2023-02-03T07:30:12;6.73;;;1.73;;
18716;SDS011;9487;50.892;6.906;2023-02-03T07:32:39;5.70;;;2.17;;
18716;SDS011;9487;50.892;6.906;2023-02-03T07:35:06;5.23;;;1.63;;
18716;SDS011;9487;50.892;6.906;2023-02-03T07:37:33;3.23;;;1.33;;
18716;SDS011;9487;50.892;6.906;2023-02-03T07:40:00;5.83;;;1.70;;
18716;SDS011;9487;50.892;6.906;2023-02-03T07:42:27;3.80;;;1.23;;
18716;SDS011;9487;50.892;6.906;2023-02-03T07:44:55;3.10;;;0.97;;
18716;SDS011;9487;50.892;6.906;2023-02-03T07:47:22;4.83;;;1.63;;
18716;SDS011;9487;50.892;6.906;2023-02-03T07:49:48;2.80;;;1.50;;
18716;SDS011;9487;50.892;6.906;2023-02-03T07:52:15;5.73;;;1.97;;
18716;SDS011;9487;50.892;6.906;2023-02-03T07:54:42;4.97;;;1.70;;
18716;SDS011;9487;50.892;6.906;2023-02-03T07:57:09;6.10;;;2.13;;
18716;SDS011;9487;50.892;6.906;2023-02-03T07:59:35;4.70;;;1.63;;
18716;SDS011;9487;50.892;6.906;2023-02-03T08:02:04;5.17;;;1.63;;
18716;SDS011;9487;50.892;6.906;2023-02-03T08:04:33;4.87;;;1.73;;
18716;SDS011;9487;50.892;6.906;2023-02-03T08:07:00;3.20;;;1.33;;
18716;SDS011;9487;50.892;6.906;2023-02-03T08:09:27;3.93;;;1.53;;
18716;SDS011;9487;50.892;6.906;2023-02-03T08:11:53;4.10;;;1.50;;
18716;SDS011;9487;50.892;6.906;2023-02-03T08:14:20;5.83;;;1.57;;
18716;SDS011;9487;50.892;6.906;2023-02-03T08:16:48;4.43;;;1.50;;
18716;SDS011;9487;50.892;6.906;2023-02-03T08:19:16;3.50;;;1.47;;
18716;SDS011;9487;50.892;6.906;2023-02-03T08:21:43;3.53;;;1.30;;
18716;SDS011;9487;50.892;6.906;2023-02-03T08:24:09;4.13;;;1.13;;
18716;SDS011;9487;50.892;6.906;2023-02-03T08:26:36;3.40;;;1.50;;
18716;SDS011;9487;50.892;6.906;2023-02-03T08:29:03;2.30;;;1.23;;
18716;SDS011;9487;50.892;6.906;2023-02-03T08:31:30;8.50;;;1.50;;
18716;SDS011;9487;50.892;6.906;2023-02-03T08:33:57;4.50;;;1.87;;
18716;SDS011;9487;50.892;6.906;2023-02-03T08:36:25;3.43;;;1.20;;
18716;SDS011;9487;50.892;6.906;2023-02-03T08:38:52;5.20;;;1.23;;
18716;SDS011;9487;50.892;6.906;2023-02-03T08:41:19;3.83;;;1.80;;
18716;SDS011;9487;50.892;6.906;2023-02-03T08:43:46;3.57;;;1.93;;
18716;SDS011;9487;50.892;6.906;2023-02-03T08:46:13;7.03;;;1.47;;
18716;SDS011;9487;50.892;6.906;2023-02-03T08:48:40;3.20;;;1.00;;
18716;SDS011;9487;50.892;6.906;2023-02-03T08:51:10;5.13;;;1.50;;
18716;SDS011;9487;50.892;6.906;2023-02-03T08:53:39;5.57;;;2.00;;
18716;SDS011;9487;50.892;6.906;2023-02-03T08:56:07;6.20;;;1.57;;
18716;SDS011;9487;50.892;6.906;2023-02-03T08:58:35;6.10;;;1.80;;
18716;SDS011;9487;50.892;6.906;2023-02-03T09:01:06;5.93;;;2.00;;
18716;SDS011;9487;50.892;6.906;2023-02-03T09:03:34;5.63;;;2.10;;
18716;SDS011;9487;50.892;6.906;2023-02-03T09:06:02;4.23;;;1.80;;
18716;SDS011;9487;50.892;6.906;2023-02-03T09:08:29;5.30;;;1.87;;
18716;SDS011;9487;50.892;6.906;2023-02-03T09:10:58;4.07;;;1.57;;
18716;SDS011;9487;50.892;6.906;2023-02-03T09:13:24;5.73;;;1.70;;
18716;SDS011;9487;50.892;6.906;2023-02-03T09:15:51;4.20;;;1.90;;
18716;SDS011;9487;50.892;6.906;2023-02-03T09:18:18;5.97;;;2.27;;
18716;SDS011;9487;50.892;6.906;2023-02-03T09:20:45;2.90;;;1.53;;
18716;SDS011;9487;50.892;6.906;2023-02-03T09:23:12;5.60;;;2.00;;
18716;SDS011;9487;50.892;6.906;2023-02-03T09:25:38;5.17;;;1.97;;
18716;SDS011;9487;50.892;6.906;2023-02-03T09:28:07;4.83;;;1.67;;
18716;SDS011;9487;50.892;6.906;2023-02-03T09:30:33;4.17;;;1.67;;
18716;SDS011;9487;50.892;6.906;2023-02-03T09:33:00;5.43;;;2.00;;
18716;SDS011;9487;50.892;6.906;2023-02-03T09:35:27;5.27;;;2.20;;
18716;SDS011;9487;50.892;6.906;2023-02-03T09:37:54;4.90;;;2.13;;
18716;SDS011;9487;50.892;6.906;2023-02-03T09:40:22;5.20;;;2.30;;
18716;SDS011;9487;50.892;6.906;2023-02-03T09:45:45;7.27;;;2.13;;
18716;SDS011;9487;50.892;6.906;2023-02-03T09:48:13;3.00;;;1.50;;
18716;SDS011;9487;50.892;6.906;2023-02-03T09:50:44;4.63;;;2.10;;
18716;SDS011;9487;50.892;6.906;2023-02-03T09:53:22;3.97;;;2.10;;
18716;SDS011;9487;50.892;6.906;2023-02-03T09:55:53;3.53;;;1.70;;
18716;SDS011;9487;50.892;6.906;2023-02-03T09:58:22;6.53;;;2.40;;
18716;SDS011;9487;50.892;6.906;2023-02-03T10:00:49;11.67;;;3.10;;
18716;SDS011;9487;50.892;6.906;2023-02-03T10:03:22;6.97;;;2.50;;
18716;SDS011;9487;50.892;6.906;2023-02-03T10:08:55;5.93;;;2.70;;
18716;SDS011;9487;50.892;6.906;2023-02-03T10:11:50;5.50;;;3.20;;
18716;SDS011;9487;50.892;6.906;2023-02-03T10:14:36;12.03;;;3.37;;
18716;SDS011;9487;50.892;6.906;2023-02-03T10:17:17;6.87;;;2.90;;
18716;SDS011;9487;50.892;6.906;2023-02-03T10:19:54;4.80;;;2.60;;
18716;SDS011;9487;50.892;6.906;2023-02-03T10:22:26;8.73;;;3.30;;
18716;SDS011;9487;50.892;6.906;2023-02-03T10:24:57;6.40;;;2.70;;
18716;SDS011;9487;50.892;6.906;2023-02-03T10:27:28;6.43;;;3.63;;
18716;SDS011;9487;50.892;6.906;2023-02-03T10:29:59;9.63;;;4.07;;
18716;SDS011;9487;50.892;6.906;2023-02-03T10:32:29;6.57;;;2.97;;
18716;SDS011;9487;50.892;6.906;2023-02-03T10:34:57;8.23;;;3.90;;
18716;SDS011;9487;50.892;6.906;2023-02-03T10:37:28;7.37;;;2.77;;
18716;SDS011;9487;50.892;6.906;2023-02-03T10:39:58;7.30;;;3.83;;
18716;SDS011;9487;50.892;6.906;2023-02-03T10:42:27;5.90;;;3.47;;
18716;SDS011;9487;50.892;6.906;2023-02-03T10:45:17;5.53;;;3.90;;
18716;SDS011;9487;50.892;6.906;2023-02-03T10:47:46;7.30;;;3.83;;
18716;SDS011;9487;50.892;6.906;2023-02-03T10:50:18;5.27;;;3.37;;
18716;SDS011;9487;50.892;6.906;2023-02-03T10:52:46;7.27;;;3.13;;
18716;SDS011;9487;50.892;6.906;2023-02-03T10:55:28;6.00;;;3.57;;
18716;SDS011;9487;50.892;6.906;2023-02-03T10:57:56;5.97;;;3.97;;
18716;SDS011;9487;50.892;6.906;2023-02-03T11:00:33;5.87;;;3.37;;
18716;SDS011;9487;50.892;6.906;2023-02-03T11:03:02;5.17;;;3.50;;
18716;SDS011;9487;50.892;6.906;2023-02-03T11:05:32;7.60;;;3.37;;
18716;SDS011;9487;50.892;6.906;2023-02-03T11:07:59;5.37;;;4.03;;
18716;SDS011;9487;50.892;6.906;2023-02-03T11:10:33;6.10;;;3.80;;
18716;SDS011;9487;50.892;6.906;2023-02-03T11:13:12;7.20;;;4.00;;
18716;SDS011;9487;50.892;6.906;2023-02-03T11:15:44;7.40;;;3.90;;
18716;SDS011;9487;50.892;6.906;2023-02-03T11:18:32;5.43;;;3.10;;
18716;SDS011;9487;50.892;6.906;2023-02-03T11:21:05;6.43;;;4.00;;
18716;SDS011;9487;50.892;6.906;2023-02-03T11:23:42;4.63;;;3.97;;
18716;SDS011;9487;50.892;6.906;2023-02-03T11:26:13;6.60;;;3.93;;
18716;SDS011;9487;50.892;6.906;2023-02-03T11:28:43;6.60;;;3.70;;
18716;SDS011;9487;50.892;6.906;2023-02-03T11:31:16;5.47;;;3.87;;
18716;SDS011;9487;50.892;6.906;2023-02-03T11:33:47;7.53;;;4.43;;
18716;SDS011;9487;50.892;6.906;2023-02-03T11:36:16;5.93;;;3.93;;
18716;SDS011;9487;50.892;6.906;2023-02-03T11:38:43;5.80;;;3.50;;
18716;SDS011;9487;50.892;6.906;2023-02-03T11:41:16;8.57;;;4.53;;
18716;SDS011;9487;50.892;6.906;2023-02-03T11:43:46;6.20;;;4.30;;
18716;SDS011;9487;50.892;6.906;2023-02-03T11:46:13;6.90;;;4.53;;
18716;SDS011;9487;50.892;6.906;2023-02-03T11:48:46;7.53;;;5.20;;
18716;SDS011;9487;50.892;6.906;2023-02-03T11:51:27;7.17;;;5.37;;
18716;SDS011;9487;50.892;6.906;2023-02-03T11:54:05;7.83;;;4.97;;
18716;SDS011;9487;50.892;6.906;2023-02-03T11:57:00;11.10;;;5.70;;
18716;SDS011;9487;50.892;6.906;2023-02-03T11:59:40;8.97;;;6.40;;
18716;SDS011;9487;50.892;6.906;2023-02-03T12:02:36;10.33;;;6.93;;
18716;SDS011;9487;50.892;6.906;2023-02-03T12:05:32;9.87;;;6.10;;
18716;SDS011;9487;50.892;6.906;2023-02-03T12:08:18;9.53;;;6.53;;
18716;SDS011;9487;50.892;6.906;2023-02-03T12:10:56;6.63;;;5.50;;
18716;SDS011;9487;50.892;6.906;2023-02-03T12:13:35;9.50;;;7.67;;
18716;SDS011;9487;50.892;6.906;2023-02-03T12:16:26;8.37;;;6.63;;
18716;SDS011;9487;50.892;6.906;2023-02-03T12:19:06;8.93;;;6.83;;
18716;SDS011;9487;50.892;6.906;2023-02-03T12:21:42;9.37;;;6.70;;
18716;SDS011;9487;50.892;6.906;2023-02-03T12:24:14;8.20;;;7.00;;
18716;SDS011;9487;50.892;6.906;2023-02-03T12:26:53;8.27;;;6.43;;
18716;SDS011;9487;50.892;6.906;2023-02-03T12:29:29;8.70;;;6.80;;
18716;SDS011;9487;50.892;6.906;2023-02-03T12:32:02;11.13;;;7.47;;
18716;SDS011;9487;50.892;6.906;2023-02-03T12:34:36;8.80;;;7.90;;
18716;SDS011;9487;50.892;6.906;2023-02-03T12:37:11;9.73;;;8.50;;
18716;SDS011;9487;50.892;6.906;2023-02-03T12:39:42;12.60;;;8.03;;
18716;SDS011;9487;50.892;6.906;2023-02-03T12:42:17;11.67;;;8.37;;
18716;SDS011;9487;50.892;6.906;2023-02-03T12:44:47;9.63;;;7.77;;
18716;SDS011;9487;50.892;6.906;2023-02-03T12:47:21;9.80;;;8.77;;
18716;SDS011;9487;50.892;6.906;2023-02-03T12:49:53;14.40;;;9.50;;
18716;SDS011;9487;50.892;6.906;2023-02-03T12:52:26;11.33;;;9.83;;
18716;SDS011;9487;50.892;6.906;2023-02-03T12:54:59;12.60;;;9.27;;
18716;SDS011;9487;50.892;6.906;2023-02-03T12:57:34;11.33;;;8.90;;
18716;SDS011;9487;50.892;6.906;2023-02-03T13:00:13;11.77;;;8.87;;
18716;SDS011;9487;50.892;6.906;2023-02-03T13:02:47;11.13;;;8.60;;
18716;SDS011;9487;50.892;6.906;2023-02-03T13:05:23;13.80;;;8.87;;
18716;SDS011;9487;50.892;6.906;2023-02-03T13:07:58;14.80;;;9.33;;
18716;SDS011;9487;50.892;6.906;2023-02-03T13:10:30;10.37;;;9.27;;
18716;SDS011;9487;50.892;6.906;2023-02-03T13:13:01;11.27;;;9.73;;
18716;SDS011;9487;50.892;6.906;2023-02-03T13:15:32;11.30;;;9.53;;
18716;SDS011;9487;50.892;6.906;2023-02-03T13:18:04;14.03;;;10.47;;
18716;SDS011;9487;50.892;6.906;2023-02-03T13:20:42;11.63;;;9.20;;
18716;SDS011;9487;50.892;6.906;2023-02-03T13:23:12;12.93;;;10.60;;
18716;SDS011;9487;50.892;6.906;2023-02-03T13:25:44;9.97;;;8.30;;
18716;SDS011;9487;50.892;6.906;2023-02-03T13:28:17;13.43;;;10.53;;
18716;SDS011;9487;50.892;6.906;2023-02-03T13:31:02;11.57;;;9.90;;
18716;SDS011;9487;50.892;6.906;2023-02-03T13:36:49;16.23;;;9.63;;
18716;SDS011;9487;50.892;6.906;2023-02-03T13:39:44;14.63;;;11.20;;
18716;SDS011;9487;50.892;6.906;2023-02-03T13:42:20;15.57;;;11.60;;
18716;SDS011;9487;50.892;6.906;2023-02-03T13:44:51;15.50;;;12.00;;
18716;SDS011;9487;50.892;6.906;2023-02-03T13:47:21;16.50;;;12.07;;
18716;SDS011;9487;50.892;6.906;2023-02-03T13:49:52;13.40;;;12.00;;
18716;SDS011;9487;50.892;6.906;2023-02-03T13:52:24;15.00;;;11.90;;
18716;SDS011;9487;50.892;6.906;2023-02-03T13:54:55;16.63;;;12.67;;
18716;SDS011;9487;50.892;6.906;2023-02-03T13:57:25;16.27;;;13.83;;
18716;SDS011;9487;50.892;6.906;2023-02-03T13:59:58;19.07;;;13.70;;
18716;SDS011;9487;50.892;6.906;2023-02-03T14:02:28;17.93;;;13.60;;
18716;SDS011;9487;50.892;6.906;2023-02-03T14:05:07;16.80;;;13.63;;
18716;SDS011;9487;50.892;6.906;2023-02-03T14:17:08;11.57;;;9.77;;
18716;SDS011;9487;50.892;6.906;2023-02-03T14:20:40;18.73;;;15.30;;
18716;SDS011;9487;50.892;6.906;2023-02-03T14:23:16;15.80;;;13.10;;
18716;SDS011;9487;50.892;6.906;2023-02-03T14:25:48;17.07;;;14.87;;
18716;SDS011;9487;50.892;6.906;2023-02-03T14:28:19;17.60;;;12.87;;
18716;SDS011;9487;50.892;6.906;2023-02-03T14:31:01;15.70;;;14.07;;
18716;SDS011;9487;50.892;6.906;2023-02-03T14:33:50;16.00;;;13.73;;
18716;SDS011;9487;50.892;6.906;2023-02-03T14:36:26;17.00;;;14.13;;
18716;SDS011;9487;50.892;6.906;2023-02-03T14:38:56;16.67;;;13.33;;
18716;SDS011;9487;50.892;6.906;2023-02-03T14:41:27;16.07;;;13.83;;
18716;SDS011;9487;50.892;6.906;2023-02-03T14:44:05;13.53;;;11.97;;
18716;SDS011;9487;50.892;6.906;2023-02-03T14:46:45;16.53;;;13.97;;
18716;SDS011;9487;50.892;6.906;2023-02-03T14:49:36;15.63;;;12.97;;
18716;SDS011;9487;50.892;6.906;2023-02-03T14:52:15;14.80;;;11.80;;
18716;SDS011;9487;50.892;6.906;2023-02-03T14:55:02;17.00;;;12.80;;
18716;SDS011;9487;50.892;6.906;2023-02-03T14:57:42;16.93;;;14.67;;
18716;SDS011;9487;50.892;6.906;2023-02-03T15:03:14;17.73;;;14.50;;
18716;SDS011;9487;50.892;6.906;2023-02-03T15:05:48;16.70;;;14.07;;
18716;SDS011;9487;50.892;6.906;2023-02-03T15:08:28;18.13;;;14.53;;
18716;SDS011;9487;50.892;6.906;2023-02-03T15:14:12;21.00;;;14.30;;
18716;SDS011;9487;50.892;6.906;2023-02-03T15:16:44;15.27;;;13.73;;
18716;SDS011;9487;50.892;6.906;2023-02-03T15:19:14;18.00;;;13.63;;
18716;SDS011;9487;50.892;6.906;2023-02-03T15:21:43;17.90;;;13.50;;
18716;SDS011;9487;50.892;6.906;2023-02-03T15:24:12;19.03;;;12.43;;
18716;SDS011;9487;50.892;6.906;2023-02-03T15:26:43;15.10;;;12.23;;
18716;SDS011;9487;50.892;6.906;2023-02-03T15:29:16;16.13;;;13.43;;
18716;SDS011;9487;50.892;6.906;2023-02-03T15:31:47;14.80;;;11.47;;
18716;SDS011;9487;50.892;6.906;2023-02-03T15:34:20;17.27;;;11.57;;
18716;SDS011;9487;50.892;6.906;2023-02-03T15:36:52;12.67;;;11.37;;
18716;SDS011;9487;50.892;6.906;2023-02-03T15:39:23;13.37;;;10.97;;
18716;SDS011;9487;50.892;6.906;2023-02-03T15:42:12;12.17;;;10.93;;
18716;SDS011;9487;50.892;6.906;2023-02-03T15:44:45;12.23;;;9.87;;
18716;SDS011;9487;50.892;6.906;2023-02-03T15:47:22;11.00;;;9.90;;
18716;SDS011;9487;50.892;6.906;2023-02-03T15:49:56;14.53;;;9.23;;